Time;durP1;ratioP1;P1;durP2;ratioP2;P2;SDS_P1;SDS_P2;PMS_P1;PMS_P2;Temp;Humidity;BMP_temperature;BMP_pressure;BME280_temperature;BME280_humidity;BME280_pressure;Samples;Min_cycle;Max_cycle;Signal;HPM_P1;HPM_P2
2022/03/01 00:01:19;;;;;;;;;;;;;;;-144.99;100.00;61100.13;5067684;28;19984;-77
2022/03/01 00:04:45;;;;;;;;;;;;;;;-144.99;100.00;61100.13;5071602;28;19983;-77
2022/03/01 00:08:10;;;;;;;;;;;;;;;-144.99;100.00;61100.13;5081740;28;20075;-76
2022/03/01 00:11:35;;;;;;;;;;;;;;;-144.99;100.00;61100.13;5071584;28;20279;-75
2022/03/01 00:14:34;;;;;;;;;;;;;;;-144.99;100.00;61100.13;5086586;28;19980;-79
2022/03/01 00:17:59;;;;;;;;;;;;;;;-144.99;100.00;61100.13;5080844;28;19989;-77
2022/03/01 00:21:26;;;;;;;;;;;;;;;-144.99;100.00;61100.13;5086323;28;19989;-74
2022/03/01 00:24:51;;;;;;;;;;;;;;;-144.99;100.00;61100.13;5088918;28;19978;-75
2022/03/01 00:27:25;;;;;;;;;;;;;;;-144.99;100.00;61100.13;5093642;28;20424;-76
2022/03/01 00:30:50;;;;;;;;;;;;;;;-144.99;100.00;61100.13;5091882;28;19987;-75
2022/03/01 00:34:15;;;;;;;;;;;;;;;-144.99;100.00;61100.13;5084545;28;19972;-75
2022/03/01 00:37:41;;;;;;;;;;;;;;;-144.99;100.00;61100.13;5085806;28;19991;-76
2022/03/01 00:41:06;;;;;;;;;;;;;;;-144.99;100.00;61100.13;5089874;28;20504;-77
2022/03/01 00:44:31;;;;;;;;;;;;;;;-144.99;100.00;61100.13;5081825;28;19980;-76
2022/03/01 00:47:55;;;;;;;;;;;;;;;-144.99;100.00;61100.13;5086826;28;19980;-75
2022/03/01 00:51:20;;;;;;;;;;;;;;;-144.99;100.00;61100.13;5084761;28;19975;-76
2022/03/01 00:53:52;;;;;;;;;;;;;;;-144.99;100.00;61100.13;5087844;28;19950;-74
2022/03/01 00:57:08;;;;;;;;;;;;;;;-144.99;100.00;61100.13;5089017;28;19995;-76
2022/03/01 01:00:34;;;;;;;;;;;;;;;-144.99;100.00;61100.13;5083825;28;19999;-76
2022/03/01 01:03:58;;;;;;;;;;;;;;;-144.99;100.00;61100.13;5087949;28;19981;-76
2022/03/01 01:07:25;;;;;;;;;;;;;;;-144.99;100.00;61100.13;5070899;28;19982;-74
2022/03/01 01:10:51;;;;;;;;;;;;;;;-144.99;100.00;61100.13;5087628;28;20027;-76
2022/03/01 01:14:16;;;;;;;;;;;;;;;-144.99;100.00;61100.13;5090373;28;19988;-77
2022/03/01 01:17:41;;;;;;;;;;;;;;;-144.99;100.00;61100.13;5087093;28;19994;-75
2022/03/01 01:21:07;;;;;;;;;;;;;;;-144.99;100.00;61100.13;5070235;28;20013;-76
2022/03/01 01:24:32;;;;;;;;;;;;;;;-144.99;100.00;61100.13;5077881;28;19985;-76
2022/03/01 01:27:59;;;;;;;;;;;;;;;-144.99;100.00;61100.13;5089381;28;20054;-78
2022/03/01 01:31:24;;;;;;;;;;;;;;;-144.99;100.00;61100.13;5083412;28;19971;-76
2022/03/01 01:34:49;;;;;;;;;;;;;;;-144.99;100.00;61100.13;5082279;28;19953;-75
2022/03/01 01:38:14;;;;;;;;;;;;;;;-144.99;100.00;61100.13;5087437;28;20010;-77
2022/03/01 01:41:39;;;;;;;;;;;;;;;-144.99;100.00;61100.13;5084908;28;19979;-78
2022/03/01 01:45:06;;;;;;;;;;;;;;;-144.99;100.00;61100.13;5088401;28;19979;-79
2022/03/01 01:48:31;;;;;;;;;;;;;;;-144.99;100.00;61100.13;5086578;28;19982;-76
2022/03/01 01:51:56;;;;;;;;;;;;;;;-144.99;100.00;61100.13;5087974;28;19987;-75
2022/03/01 01:54:22;;;;;;;;;;;;;;;-144.99;100.00;61100.13;5085464;28;20453;-76
2022/03/01 01:57:48;;;;;;;;;;;;;;;-144.99;100.00;61100.13;5086264;28;19991;-77
2022/03/01 02:00:39;;;;;;;;;;;;;;;-144.99;100.00;61100.13;5082463;28;19976;-77
2022/03/01 02:04:04;;;;;;;;;;;;;;;-144.99;100.00;61100.13;5089175;28;19970;-76
2022/03/01 02:07:29;;;;;;;;;;;;;;;-144.99;100.00;61100.13;5086481;28;19980;-74
2022/03/01 02:10:54;;;;;;;;;;;;;;;-144.99;100.00;61100.13;5098560;28;19992;-77
2022/03/01 02:14:19;;;;;;;;;;;;;;;-144.99;100.00;61100.13;5099160;28;19980;-74
2022/03/01 02:17:45;;;;;;;;;;;;;;;-144.99;100.00;61100.13;5097863;28;20001;-77
2022/03/01 02:21:11;;;;;;;;;;;;;;;-144.99;100.00;61100.13;5101366;28;19989;-74
2022/03/01 02:23:38;;;;;;;;;;;;;;;-144.99;100.00;61100.13;5085413;28;19975;-76
2022/03/01 02:27:02;;;;;;;;;;;;;;;-144.99;100.00;61100.13;5096711;28;19971;-74
2022/03/01 02:29:28;;;;;;;;;;;;;;;-144.99;100.00;61100.13;5093898;28;20485;-74
2022/03/01 02:32:53;;;;;;;;;;;;;;;-144.99;100.00;61100.13;5092117;28;19950;-76
2022/03/01 02:36:02;;;;;;;;;;;;;;;-144.99;100.00;61100.13;5081499;28;19972;-75
2022/03/01 02:39:29;;;;;;;;;;;;;;;-144.99;100.00;61100.13;5079824;28;20052;-75
2022/03/01 02:42:53;;;;;;;;;;;;;;;-144.99;100.00;61100.13;5089322;28;20390;-76
2022/03/01 02:46:18;;;;;;;;;;;;;;;-144.99;100.00;61100.13;5090431;28;19974;-79
2022/03/01 02:49:43;;;;;;;;;;;;;;;-144.99;100.00;61100.13;5083325;28;20659;-81
2022/03/01 02:52:10;;;;;;;;;;;;;;;-144.99;100.00;61100.13;5089818;28;19971;-77
2022/03/01 02:55:36;;;;;;;;;;;;;;;-144.99;100.00;61100.13;5088985;28;19991;-78
2022/03/01 02:59:01;;;;;;;;;;;;;;;-144.99;100.00;61100.13;5086776;28;20473;-80
2022/03/01 03:02:26;;;;;;;;;;;;;;;-144.99;100.00;61100.13;5090265;28;19977;-77
2022/03/01 03:05:51;;;;;;;;;;;;;;;-144.99;100.00;61100.13;5092044;28;19983;-77
2022/03/01 03:09:16;;;;;;;;;;;;;;;-144.99;100.00;61100.13;5105710;28;19999;-77
2022/03/01 03:12:42;;;;;;;;;;;;;;;-144.99;100.00;61100.13;5089613;28;19977;-74
2022/03/01 03:16:07;;;;;;;;;;;;;;;-144.99;100.00;61100.13;5086861;28;19986;-76
2022/03/01 03:18:34;;;;;;;;;;;;;;;-144.99;100.00;61100.13;5090194;28;20527;-77
2022/03/01 03:21:00;;;;;;;;;;;;;;;-144.99;100.00;61100.13;5089424;28;19971;-76
2022/03/01 03:23:26;;;;;;;;;;;;;;;-144.99;100.00;61100.13;5087832;28;19976;-75
2022/03/01 03:26:13;;;;;;;;;;;;;;;-144.99;100.00;61100.13;5090737;28;19984;-76
2022/03/01 03:29:02;;;;;;;;;;;;;;;-144.99;100.00;61100.13;5090287;28;20381;-76
2022/03/01 03:31:28;;;;;;;;;;;;;;;-144.99;100.00;61100.13;5079371;28;20350;-77
2022/03/01 03:34:53;;;;;;;;;;;;;;;-144.99;100.00;61100.13;5089118;28;19979;-78
2022/03/01 03:37:52;;;;;;;;;;;;;;;-144.99;100.00;61100.13;5085629;28;20014;-75
2022/03/01 03:40:18;;;;;;;;;;;;;;;-144.99;100.00;61100.13;5083552;28;19980;-78
2022/03/01 03:42:45;;;;;;;;;;;;;;;-144.99;100.00;61100.13;5089268;28;19975;-76
2022/03/01 03:45:13;;;;;;;;;;;;;;;-144.99;100.00;61100.13;5089204;28;20079;-77
2022/03/01 03:48:00;;;;;;;;;;;;;;;-144.99;100.00;61100.13;5088930;28;20005;-75
2022/03/01 03:50:26;;;;;;;;;;;;;;;-144.99;100.00;61100.13;5089893;28;19991;-75
2022/03/01 03:52:53;;;;;;;;;;;;;;;-144.99;100.00;61100.13;5087360;28;19931;-76
2022/03/01 03:55:19;;;;;;;;;;;;;;;-144.99;100.00;61100.13;5088861;28;19972;-76
2022/03/01 03:58:44;;;;;;;;;;;;;;;-144.99;100.00;61100.13;5084742;28;19992;-75
2022/03/01 04:01:19;;;;;;;;;;;;;;;-144.99;100.00;61100.13;5074185;28;20436;-77
2022/03/01 04:03:53;;;;;;;;;;;;;;;-144.99;100.00;61100.13;5086271;28;19986;-74
2022/03/01 04:06:26;;;;;;;;;;;;;;;-144.99;100.00;61100.13;5090566;28;19986;-76
2022/03/01 04:08:58;;;;;;;;;;;;;;;-144.99;100.00;61100.13;5087914;28;20049;-76
2022/03/01 04:11:30;;;;;;;;;;;;;;;-144.99;100.00;61100.13;5087267;28;21302;-76
2022/03/01 04:13:59;;;;;;;;;;;;;;;-144.99;100.00;61100.13;5087783;28;19979;-76
2022/03/01 04:16:29;;;;;;;;;;;;;;;-144.99;100.00;61100.13;5086970;28;19976;-79
2022/03/01 04:18:59;;;;;;;;;;;;;;;-144.99;100.00;61100.13;5081899;28;19996;-79
2022/03/01 04:21:46;;;;;;;;;;;;;;;-144.99;100.00;61100.13;5088186;28;19983;-76
2022/03/01 04:24:33;;;;;;;;;;;;;;;-144.99;100.00;61100.13;5080160;28;20441;-74
2022/03/01 04:27:20;;;;;;;;;;;;;;;-144.99;100.00;61100.13;5089192;28;19980;-77
2022/03/01 04:30:07;;;;;;;;;;;;;;;-144.99;100.00;61100.13;5070476;28;20491;-76
2022/03/01 04:32:56;;;;;;;;;;;;;;;-144.99;100.00;61100.13;5082586;28;19959;-76
2022/03/01 04:35:43;;;;;;;;;;;;;;;-144.99;100.00;61100.13;5088774;28;19984;-74
2022/03/01 04:38:30;;;;;;;;;;;;;;;-144.99;100.00;61100.13;5087773;28;20003;-77
2022/03/01 04:41:17;;;;;;;;;;;;;;;-144.99;100.00;61100.13;5089852;28;19984;-75
2022/03/01 04:44:05;;;;;;;;;;;;;;;-144.99;100.00;61100.13;5087917;28;19975;-74
2022/03/01 04:46:53;;;;;;;;;;;;;;;-144.99;100.00;61100.13;5069548;28;19986;-78
2022/03/01 04:49:41;;;;;;;;;;;;;;;-144.99;100.00;61100.13;5088917;28;20039;-74
2022/03/01 04:52:28;;;;;;;;;;;;;;;-144.99;100.00;61100.13;5087345;28;19978;-78
2022/03/01 04:55:16;;;;;;;;;;;;;;;-144.99;100.00;61100.13;5085127;28;19975;-77
2022/03/01 04:58:03;;;;;;;;;;;;;;;-144.99;100.00;61100.13;5073696;28;19982;-74
2022/03/01 05:00:50;;;;;;;;;;;;;;;-144.99;100.00;61100.13;5092774;28;19982;-75
2022/03/01 05:03:37;;;;;;;;;;;;;;;-144.99;100.00;61100.13;5091076;28;20443;-76
2022/03/01 05:06:25;;;;;;;;;;;;;;;-144.99;100.00;61100.13;5100714;28;19986;-79
2022/03/01 05:09:13;;;;;;;;;;;;;;;-144.99;100.00;61100.13;5099929;28;20459;-82
2022/03/01 05:12:00;;;;;;;;;;;;;;;-144.99;100.00;61100.13;5111998;28;19978;-83
2022/03/01 05:14:47;;;;;;;;;;;;;;;-144.99;100.00;61100.13;5111539;28;20031;-83
2022/03/01 05:17:35;;;;;;;;;;;;;;;-144.99;100.00;61100.13;5112272;28;19958;-86
2022/03/01 05:20:22;;;;;;;;;;;;;;;-144.99;100.00;61100.13;5112635;28;20036;-83
2022/03/01 05:23:11;;;;;;;;;;;;;;;-144.99;100.00;61100.13;5104839;28;19976;-81
2022/03/01 05:25:59;;;;;;;;;;;;;;;-144.99;100.00;61100.13;5100203;28;19975;-77
2022/03/01 05:28:46;;;;;;;;;;;;;;;-144.99;100.00;61100.13;5084150;28;20461;-77
2022/03/01 05:31:33;;;;;;;;;;;;;;;-144.99;100.00;61100.13;5103803;28;19971;-78
2022/03/01 05:34:20;;;;;;;;;;;;;;;-144.99;100.00;61100.13;5109381;28;19979;-81
2022/03/01 05:37:07;;;;;;;;;;;;;;;-144.99;100.00;61100.13;5101974;28;19963;-82
2022/03/01 05:39:55;;;;;;;;;;;;;;;-144.99;100.00;61100.13;5116894;28;19990;-83
2022/03/01 05:42:43;;;;;;;;;;;;;;;-144.99;100.00;61100.13;5118338;28;20046;-80
2022/03/01 05:45:30;;;;;;;;;;;;;;;-144.99;100.00;61100.13;5110245;28;19970;-81
2022/03/01 05:48:17;;;;;;;;;;;;;;;-144.99;100.00;61100.13;5116429;28;19959;-84
2022/03/01 05:51:06;;;;;;;;;;;;;;;-144.99;100.00;61100.13;5117121;28;19978;-83
2022/03/01 05:53:54;;;;;;;;;;;;;;;-144.99;100.00;61100.13;5112295;28;20053;-83
2022/03/01 05:56:42;;;;;;;;;;;;;;;-144.99;100.00;61100.13;5117323;28;19960;-81
2022/03/01 05:59:29;;;;;;;;;;;;;;;-144.99;100.00;61100.13;5116889;28;19988;-82
2022/03/01 06:02:16;;;;;;;;;;;;;;;-144.99;100.00;61100.13;5115548;28;19963;-78
2022/03/01 06:05:03;;;;;;;;;;;;;;;-144.99;100.00;61100.13;5115018;28;19975;-77
2022/03/01 06:07:50;;;;;;;;;;;;;;;-144.99;100.00;61100.13;5111202;28;19963;-77
2022/03/01 06:10:37;;;;;;;;;;;;;;;-144.99;100.00;61100.13;5117200;28;19984;-76
2022/03/01 06:13:25;;;;;;;;;;;;;;;-144.99;100.00;61100.13;5116265;28;19983;-75
2022/03/01 06:16:12;;;;;;;;;;;;;;;-144.99;100.00;61100.13;5112306;28;20176;-76
2022/03/01 06:18:59;;;;;;;;;;;;;;;-144.99;100.00;61100.13;5096635;28;19987;-76
2022/03/01 06:21:46;;;;;;;;;;;;;;;-144.99;100.00;61100.13;4345261;22;10000727;-66
2022/03/01 06:24:33;;;;;;;;;;;;;;;-144.99;100.00;61100.13;5076014;28;19993;-67
2022/03/01 06:27:20;;;;;;;;;;;;;;;-144.99;100.00;61100.13;5078688;28;19997;-67
2022/03/01 06:30:10;;;;;;;;;;;;;;;-144.99;100.00;61100.13;5068263;28;20086;-66
2022/03/01 06:32:57;;;;;;;;;;;;;;;-144.99;100.00;61100.13;5067148;28;20065;-68
2022/03/01 06:35:44;;;;;;;;;;;;;;;-144.99;100.00;61100.13;5078607;28;20013;-67
2022/03/01 06:38:31;;;;;;;;;;;;;;;-144.99;100.00;61100.13;5079437;28;20000;-66
2022/03/01 06:41:18;;;;;;;;;;;;;;;-144.99;100.00;61100.13;5082817;28;19975;-66
2022/03/01 06:44:05;;;;;;;;;;;;;;;-144.99;100.00;61100.13;5078650;28;19986;-66
2022/03/01 06:46:53;;;;;;;;;;;;;;;-144.99;100.00;61100.13;5078347;28;20062;-66
2022/03/01 06:49:40;;;;;;;;;;;;;;;-144.99;100.00;61100.13;5071935;28;19998;-66
2022/03/01 06:52:28;;;;;;;;;;;;;;;-144.99;100.00;61100.13;5080259;28;20367;-67
2022/03/01 06:55:15;;;;;;;;;;;;;;;-144.99;100.00;61100.13;5078891;28;20099;-67
2022/03/01 06:58:02;;;;;;;;;;;;;;;-144.99;100.00;61100.13;5076470;28;20446;-68
2022/03/01 07:00:49;;;;;;;;;;;;;;;-144.99;100.00;61100.13;5070587;28;20467;-68
2022/03/01 07:03:39;;;;;;;;;;;;;;;-144.99;100.00;61100.13;5086578;28;19990;-68
2022/03/01 07:06:26;;;;;;;;;;;;;;;-144.99;100.00;61100.13;5080412;28;20428;-65
2022/03/01 07:09:12;;;;;;;;;;;;;;;-144.99;100.00;61100.13;5068120;28;19989;-68
2022/03/01 07:11:59;;;;;;;;;;;;;;;-144.99;100.00;61100.13;5083334;28;19978;-65
2022/03/01 07:14:48;;;;;;;;;;;;;;;-144.99;100.00;61100.13;5067727;28;19996;-66
2022/03/01 07:17:35;;;;;;;;;;;;;;;-144.99;100.00;61100.13;5068207;28;19981;-66
2022/03/01 07:20:24;;;;;;;;;;;;;;;-144.99;100.00;61100.13;5072070;28;20082;-66
2022/03/01 07:23:11;;;;;;;;;;;;;;;-144.99;100.00;61100.13;5079224;28;19989;-65
2022/03/01 07:25:58;;;;;;;;;;;;;;;-144.99;100.00;61100.13;5067551;28;20147;-66
2022/03/01 07:28:45;;;;;;;;;;;;;;;-144.99;100.00;61100.13;5067498;28;20001;-67
2022/03/01 07:31:32;;;;;;;;;;;;;;;-144.99;100.00;61100.13;5083330;28;19974;-66
2022/03/01 07:34:19;;;;;;;;;;;;;;;-144.99;100.00;61100.13;5073478;28;20081;-66
2022/03/01 07:37:08;;;;;;;;;;;;;;;-144.99;100.00;61100.13;5082732;28;20369;-66
2022/03/01 07:39:55;;;;;;;;;;;;;;;-144.99;100.00;61100.13;5075863;28;20354;-68
2022/03/01 07:42:43;;;;;;;;;;;;;;;-144.99;100.00;61100.13;5081792;28;20020;-67
2022/03/01 07:45:30;;;;;;;;;;;;;;;-144.99;100.00;61100.13;5067292;28;19982;-68
2022/03/01 07:48:17;;;;;;;;;;;;;;;-144.99;100.00;61100.13;5067320;28;20336;-67
2022/03/01 07:51:04;;;;;;;;;;;;;;;-144.99;100.00;61100.13;5074046;28;19982;-68
2022/03/01 07:53:52;;;;;;;;;;;;;;;-144.99;100.00;61100.13;5071830;28;20079;-67
2022/03/01 07:56:40;;;;;;;;;;;;;;;-144.99;100.00;61100.13;5075517;28;20349;-67
2022/03/01 07:59:27;;;;;;;;;;;;;;;-144.99;100.00;61100.13;5067863;28;19978;-68
2022/03/01 08:02:14;;;;;;;;;;;;;;;-144.99;100.00;61100.13;5079002;28;19956;-68
2022/03/01 08:05:01;;;;;;;;;;;;;;;-144.99;100.00;61100.13;5075923;28;19985;-67
2022/03/01 08:07:48;;;;;;;;;;;;;;;-144.99;100.00;61100.13;5079453;28;19970;-67
2022/03/01 08:10:39;;;;;;;;;;;;;;;-144.99;100.00;61100.13;5071199;28;19974;-67
2022/03/01 08:13:26;;;;;;;;;;;;;;;-144.99;100.00;61100.13;5081243;28;20445;-67
2022/03/01 08:16:14;;;;;;;;;;;;;;;-144.99;100.00;61100.13;5066658;28;20001;-68
2022/03/01 08:19:00;;;;;;;;;;;;;;;-144.99;100.00;61100.13;5066783;28;20019;-67
2022/03/01 08:21:47;;;;;;;;;;;;;;;-144.99;100.00;61100.13;5068838;28;19978;-67
2022/03/01 08:24:34;;;;;;;;;;;;;;;-144.99;100.00;61100.13;5078613;28;19975;-67
2022/03/01 08:27:23;;;;;;;;;;;;;;;-144.99;100.00;61100.13;5078070;28;19978;-67
2022/03/01 08:30:12;;;;;;;;;;;;;;;-144.99;100.00;61100.13;5065732;28;19980;-67
2022/03/01 08:32:59;;;;;;;;;;;;;;;-144.99;100.00;61100.13;5079386;28;19993;-67
2022/03/01 08:35:46;;;;;;;;;;;;;;;-144.99;100.00;61100.13;5069837;28;19943;-67
2022/03/01 08:38:33;;;;;;;;;;;;;;;-144.99;100.00;61100.13;5072538;28;19974;-68
2022/03/01 08:41:20;;;;;;;;;;;;;;;-144.99;100.00;61100.13;5068359;28;19990;-67
2022/03/01 08:44:09;;;;;;;;;;;;;;;-144.99;100.00;61100.13;5077710;28;19970;-67
2022/03/01 08:46:56;;;;;;;;;;;;;;;-144.99;100.00;61100.13;5076403;28;20110;-67
2022/03/01 08:49:43;;;;;;;;;;;;;;;-144.99;100.00;61100.13;5074046;28;20418;-67
2022/03/01 08:52:30;;;;;;;;;;;;;;;-144.99;100.00;61100.13;5078533;28;19979;-67
2022/03/01 08:55:17;;;;;;;;;;;;;;;-144.99;100.00;61100.13;5082805;28;20044;-67
2022/03/01 08:58:04;;;;;;;;;;;;;;;-144.99;100.00;61100.13;5074025;28;19962;-67
2022/03/01 09:00:52;;;;;;;;;;;;;;;-144.99;100.00;61100.13;5080972;28;20395;-67
2022/03/01 09:03:25;;;;;;;;;;;;;;;-144.99;100.00;61100.13;5077906;28;19987;-66
2022/03/01 09:05:55;;;;;;;;;;;;;;;-144.99;100.00;61100.13;5066702;28;19994;-68
2022/03/01 09:08:25;;;;;;;;;;;;;;;-144.99;100.00;61100.13;5080704;28;19970;-66
2022/03/01 09:10:53;;;;;;;;;;;;;;;-144.99;100.00;61100.13;5067704;28;20407;-67
2022/03/01 09:13:21;;;;;;;;;;;;;;;-144.99;100.00;61100.13;5078766;28;19960;-66
2022/03/01 09:15:49;;;;;;;;;;;;;;;-144.99;100.00;61100.13;5065386;28;19977;-69
2022/03/01 09:18:21;;;;;;;;;;;;;;;-144.99;100.00;61100.13;5065410;28;19957;-67
2022/03/01 09:21:08;;;;;;;;;;;;;;;-144.99;100.00;61100.13;5080144;28;19968;-67
2022/03/01 09:23:55;;;;;;;;;;;;;;;-144.99;100.00;61100.13;5073297;28;19957;-68
2022/03/01 09:26:42;;;;;;;;;;;;;;;-144.99;100.00;61100.13;5077270;28;19928;-68
2022/03/01 09:29:27;;;;;;;;;;;;;;;-144.99;100.00;61100.13;5066957;28;19942;-67
2022/03/01 09:31:59;;;;;;;;;;;;;;;-144.99;100.00;61100.13;5075737;28;19967;-68
2022/03/01 09:34:28;;;;;;;;;;;;;;;-144.99;100.00;61100.13;5079244;28;19960;-67
2022/03/01 09:36:57;;;;;;;;;;;;;;;-144.99;100.00;61100.13;5084721;28;20315;-67
2022/03/01 09:39:25;;;;;;;;;;;;;;;-144.99;100.00;61100.13;5075677;28;19928;-67
2022/03/01 09:41:55;;;;;;;;;;;;;;;-144.99;100.00;61100.13;5082283;28;20602;-67
2022/03/01 09:44:24;;;;;;;;;;;;;;;-144.99;100.00;61100.13;5065655;28;19980;-68
2022/03/01 09:46:53;;;;;;;;;;;;;;;-144.99;100.00;61100.13;5065194;28;19954;-67
2022/03/01 09:49:22;;;;;;;;;;;;;;;-144.99;100.00;61100.13;5065436;28;20007;-67
2022/03/01 09:51:52;;;;;;;;;;;;;;;-144.99;100.00;61100.13;5074661;28;20020;-68
2022/03/01 09:54:22;;;;;;;;;;;;;;;-144.99;100.00;61100.13;5077508;28;20313;-67
2022/03/01 09:56:50;;;;;;;;;;;;;;;-144.99;100.00;61100.13;5080043;28;20064;-68
2022/03/01 09:59:21;;;;;;;;;;;;;;;-144.99;100.00;61100.13;5082063;28;19961;-68
2022/03/01 10:01:49;;;;;;;;;;;;;;;-144.99;100.00;61100.13;5077610;28;19962;-67
2022/03/01 10:04:18;;;;;;;;;;;;;;;-144.99;100.00;61100.13;5083008;28;19964;-67
2022/03/01 10:06:47;;;;;;;;;;;;;;;-144.99;100.00;61100.13;5076128;28;19948;-68
2022/03/01 10:09:17;;;;;;;;;;;;;;;-144.99;100.00;61100.13;5076571;28;19943;-67
2022/03/01 10:11:47;;;;;;;;;;;;;;;-144.99;100.00;61100.13;5081402;28;19949;-68
2022/03/01 10:14:26;;;;;;;;;;;;;;;-144.99;100.00;61100.13;5073778;28;19966;-68
2022/03/01 10:16:56;;;;;;;;;;;;;;;-144.99;100.00;61100.13;5069745;28;19974;-67
2022/03/01 10:19:25;;;;;;;;;;;;;;;-144.99;100.00;61100.13;5076496;28;19956;-67
2022/03/01 10:21:58;;;;;;;;;;;;;;;-144.99;100.00;61100.13;5075315;28;20345;-67
2022/03/01 10:24:29;;;;;;;;;;;;;;;-144.99;100.00;61100.13;5071109;28;19980;-67
2022/03/01 10:26:58;;;;;;;;;;;;;;;-144.99;100.00;61100.13;5081657;28;19969;-67
2022/03/01 10:29:29;;;;;;;;;;;;;;;-144.99;100.00;61100.13;5084562;28;20023;-68
2022/03/01 10:32:10;;;;;;;;;;;;;;;-144.99;100.00;61100.13;5069094;28;20362;-67
2022/03/01 10:34:39;;;;;;;;;;;;;;;-144.99;100.00;61100.13;5068645;28;20376;-67
2022/03/01 10:37:14;;;;;;;;;;;;;;;-144.99;100.00;61100.13;5082171;28;20028;-67
2022/03/01 10:39:45;;;;;;;;;;;;;;;-144.99;100.00;61100.13;5078435;28;19978;-66
2022/03/01 10:42:16;;;;;;;;;;;;;;;-144.99;100.00;61100.13;5084949;28;19974;-67
2022/03/01 10:44:44;;;;;;;;;;;;;;;-144.99;100.00;61100.13;5067797;28;20433;-68
2022/03/01 10:47:32;;;;;;;;;;;;;;;-144.99;100.00;61100.13;5069642;28;20006;-67
2022/03/01 10:50:01;;;;;;;;;;;;;;;-144.99;100.00;61100.13;5086164;28;20385;-68
2022/03/01 10:52:33;;;;;;;;;;;;;;;-144.99;100.00;61100.13;5069014;28;20396;-67
2022/03/01 10:55:06;;;;;;;;;;;;;;;-144.99;100.00;61100.13;5076983;28;19982;-67
2022/03/01 10:57:37;;;;;;;;;;;;;;;-144.99;100.00;61100.13;5076819;28;20481;-67
2022/03/01 11:00:24;;;;;;;;;;;;;;;-144.99;100.00;61100.13;5083723;28;19984;-68
2022/03/01 11:03:10;;;;;;;;;;;;;;;-144.99;100.00;61100.13;5074333;28;19972;-67
2022/03/01 11:05:40;;;;;;;;;;;;;;;-144.99;100.00;61100.13;5077091;28;19973;-67
2022/03/01 11:08:11;;;;;;;;;;;;;;;-144.99;100.00;61100.13;5073590;28;20334;-66
2022/03/01 11:10:43;;;;;;;;;;;;;;;-144.99;100.00;61100.13;5067865;28;19978;-67
2022/03/01 11:13:13;;;;;;;;;;;;;;;-144.99;100.00;61100.13;5068111;28;19983;-66
2022/03/01 11:15:56;;;;;;;;;;;;;;;-144.99;100.00;61100.13;5081143;28;19959;-66
2022/03/01 11:18:31;;;;;;;;;;;;;;;-144.99;100.00;61100.13;5076962;28;19968;-66
2022/03/01 11:20:58;;;;;;;;;;;;;;;-144.99;100.00;61100.13;5084224;28;19979;-66
2022/03/01 11:23:26;;;;;;;;;;;;;;;-144.99;100.00;61100.13;5073816;28;19980;-67
2022/03/01 11:26:07;;;;;;;;;;;;;;;-144.99;100.00;61100.13;5078678;28;19957;-67
2022/03/01 11:28:40;;;;;;;;;;;;;;;-144.99;100.00;61100.13;5074106;28;19972;-68
2022/03/01 11:31:18;;;;;;;;;;;;;;;-144.99;100.00;61100.13;5068157;28;20365;-67
2022/03/01 11:33:54;;;;;;;;;;;;;;;-144.99;100.00;61100.13;5068129;28;19998;-67
2022/03/01 11:36:23;;;;;;;;;;;;;;;-144.99;100.00;61100.13;5078796;28;19968;-67
2022/03/01 11:38:52;;;;;;;;;;;;;;;-144.99;100.00;61100.13;5080902;28;19973;-67
2022/03/01 11:41:22;;;;;;;;;;;;;;;-144.99;100.00;61100.13;5083264;28;19982;-67
2022/03/01 11:43:52;;;;;;;;;;;;;;;-144.99;100.00;61100.13;5071628;28;19992;-67
2022/03/01 11:46:23;;;;;;;;;;;;;;;-144.99;100.00;61100.13;5077379;28;19970;-68
2022/03/01 11:48:53;;;;;;;;;;;;;;;-144.99;100.00;61100.13;5072270;28;19968;-67
2022/03/01 11:51:34;;;;;;;;;;;;;;;-144.99;100.00;61100.13;5075658;28;19961;-68
2022/03/01 11:54:06;;;;;;;;;;;;;;;-144.99;100.00;61100.13;5083866;28;20242;-67
2022/03/01 11:56:34;;;;;;;;;;;;;;;-144.99;100.00;61100.13;5074309;28;20430;-68
2022/03/01 11:59:05;;;;;;;;;;;;;;;-144.99;100.00;61100.13;5082048;28;20603;-67
2022/03/01 12:01:34;;;;;;;;;;;;;;;-144.99;100.00;61100.13;5080520;28;19998;-67
2022/03/01 12:04:03;;;;;;;;;;;;;;;-144.99;100.00;61100.13;5080287;28;20079;-68
2022/03/01 12:06:34;;;;;;;;;;;;;;;-144.99;100.00;61100.13;5072388;28;19981;-67
2022/03/01 12:09:06;;;;;;;;;;;;;;;-144.99;100.00;61100.13;5083906;28;20326;-66
2022/03/01 12:11:37;;;;;;;;;;;;;;;-144.99;100.00;61100.13;5076568;28;19965;-67
2022/03/01 12:14:07;;;;;;;;;;;;;;;-144.99;100.00;61100.13;5082406;28;19986;-67
2022/03/01 12:16:36;;;;;;;;;;;;;;;-144.99;100.00;61100.13;5076822;28;20045;-66
2022/03/01 12:19:06;;;;;;;;;;;;;;;-144.99;100.00;61100.13;5076342;28;19981;-66
2022/03/01 12:24:12;;;;;;;;;;;;;;;-144.99;100.00;61100.13;5047876;28;19984;-68
2022/03/01 12:26:44;;;;;;;;;;;;;;;-144.99;100.00;61100.13;5040155;28;19993;-68
2022/03/01 12:29:18;;;;;;;;;;;;;;;-144.99;100.00;61100.13;5038725;28;19973;-69
2022/03/01 12:31:54;;;;;;;;;;;;;;;-144.99;100.00;61100.13;5043406;28;19978;-69
2022/03/01 12:34:25;;;;;;;;;;;;;;;-144.99;100.00;61100.13;5041080;28;19994;-68
2022/03/01 12:36:53;;;;;;;;;;;;;;;-144.99;100.00;61100.13;5048746;28;19971;-67
2022/03/01 12:39:27;;;;;;;;;;;;;;;-144.99;100.00;61100.13;5047048;28;19990;-67
2022/03/01 12:41:55;;;;;;;;;;;;;;;-144.99;100.00;61100.13;5047098;28;20026;-68
2022/03/01 12:44:23;;;;;;;;;;;;;;;-144.99;100.00;61100.13;5045791;28;20428;-67
2022/03/01 12:46:50;;;;;;;;;;;;;;;-144.99;100.00;61100.13;5043486;28;19974;-69
2022/03/01 12:49:17;;;;;;;;;;;;;;;-144.99;100.00;61100.13;5048426;28;19976;-69
2022/03/01 12:51:44;;;;;;;;;;;;;;;-144.99;100.00;61100.13;5062973;28;19976;-68
2022/03/01 12:54:12;;;;;;;;;;;;;;;-144.99;100.00;61100.13;5055179;28;19975;-68
2022/03/01 12:56:43;;;;;;;;;;;;;;;-144.99;100.00;61100.13;5038748;28;19984;-68
2022/03/01 12:59:12;;;;;;;;;;;;;;;-144.99;100.00;61100.13;5040946;28;19969;-68
2022/03/01 13:01:39;;;;;;;;;;;;;;;-144.99;100.00;61100.13;5047318;28;20007;-69
2022/03/01 13:04:10;;;;;;;;;;;;;;;-144.99;100.00;61100.13;5046900;28;19977;-70
2022/03/01 13:06:37;;;;;;;;;;;;;;;-144.99;100.00;61100.13;5043636;28;20020;-69
2022/03/01 13:09:05;;;;;;;;;;;;;;;-144.99;100.00;61100.13;5047023;28;20391;-69
2022/03/01 13:11:31;;;;;;;;;;;;;;;-144.99;100.00;61100.13;5045336;28;19962;-69
2022/03/01 13:13:59;;;;;;;;;;;;;;;-144.99;100.00;61100.13;5044770;28;19972;-68
2022/03/01 13:16:28;;;;;;;;;;;;;;;-144.99;100.00;61100.13;5050380;28;19962;-68
2022/03/01 13:18:56;;;;;;;;;;;;;;;-144.99;100.00;61100.13;5057842;28;20000;-69
2022/03/01 13:21:23;;;;;;;;;;;;;;;-144.99;100.00;61100.13;5046675;28;20359;-69
2022/03/01 13:23:51;;;;;;;;;;;;;;;-144.99;100.00;61100.13;5044673;28;19988;-71
2022/03/01 13:26:17;;;;;;;;;;;;;;;-144.99;100.00;61100.13;5042632;28;19948;-69
2022/03/01 13:28:43;;;;;;;;;;;;;;;-144.99;100.00;61100.13;5031788;28;20500;-70
2022/03/01 13:31:19;;;;;;;;;;;;;;;-144.99;100.00;61100.13;5045488;28;19947;-69
2022/03/01 13:33:51;;;;;;;;;;;;;;;-144.99;100.00;61100.13;5047186;28;20323;-69
2022/03/01 13:36:18;;;;;;;;;;;;;;;-144.99;100.00;61100.13;5036853;28;19949;-68
2022/03/01 13:38:44;;;;;;;;;;;;;;;-144.99;100.00;61100.13;5037368;28;19953;-69
2022/03/01 13:41:11;;;;;;;;;;;;;;;-144.99;100.00;61100.13;5043675;28;20537;-69
2022/03/01 13:43:37;;;;;;;;;;;;;;;-144.99;100.00;61100.13;5045817;28;21447;-70
2022/03/01 13:46:05;;;;;;;;;;;;;;;-144.99;100.00;61100.13;5046087;28;19959;-70
2022/03/01 13:48:32;;;;;;;;;;;;;;;-144.99;100.00;61100.13;5045602;28;19956;-70
2022/03/01 13:51:04;;;;;;;;;;;;;;;-144.99;100.00;61100.13;5042861;28;19956;-69
2022/03/01 13:53:30;;;;;;;;;;;;;;;-144.99;100.00;61100.13;5058607;28;19962;-69
2022/03/01 13:55:57;;;;;;;;;;;;;;;-144.99;100.00;61100.13;5040098;28;20413;-69